createdAt,value
2019-02-20T00:01:43.978Z,6.85
2019-02-20T00:04:11.468Z,6.65
2019-02-20T00:06:38.878Z,6.55
2019-02-20T00:09:06.997Z,6.49
2019-02-20T00:11:34.428Z,6.56
2019-02-20T00:14:01.871Z,6.61
2019-02-20T00:16:29.280Z,6.67
2019-02-20T00:18:56.702Z,6.76
2019-02-20T00:21:24.102Z,6.75
2019-02-20T00:23:51.565Z,6.75
2019-02-20T00:26:20.214Z,6.78
2019-02-20T00:28:47.601Z,6.74
2019-02-20T00:31:15.022Z,6.74
2019-02-20T00:33:42.435Z,6.71
2019-02-20T00:36:09.947Z,6.66
2019-02-20T00:38:37.504Z,6.61
2019-02-20T00:41:04.955Z,6.55
2019-02-20T00:43:32.824Z,6.56
2019-02-20T00:46:02.726Z,6.55
2019-02-20T00:48:36.864Z,6.52
2019-02-20T00:51:04.803Z,6.53
2019-02-20T00:53:34.314Z,6.52
2019-02-20T00:56:01.745Z,6.48
2019-02-20T00:58:29.164Z,6.34
2019-02-20T01:00:56.554Z,6.32
2019-02-20T01:03:24.669Z,6.27
2019-02-20T01:05:52.081Z,6.21
2019-02-20T01:08:19.665Z,6.18
2019-02-20T01:10:47.081Z,6.27
2019-02-20T01:13:14.492Z,6.41
2019-02-20T01:15:41.925Z,6.32
2019-02-20T01:18:09.399Z,6.21
2019-02-20T01:20:36.880Z,6.18
2019-02-20T01:23:04.274Z,6.18
2019-02-20T01:25:31.712Z,6.22
2019-02-20T01:27:59.094Z,6.20
2019-02-20T01:30:26.534Z,6.13
2019-02-20T01:32:53.961Z,6.09
2019-02-20T01:35:21.430Z,6.05
2019-02-20T01:37:48.989Z,5.96
2019-02-20T01:40:16.383Z,5.91
2019-02-20T01:42:43.871Z,5.93
2019-02-20T01:45:11.326Z,5.88
2019-02-20T01:47:38.732Z,5.87
2019-02-20T01:50:06.231Z,5.83
2019-02-20T01:52:33.639Z,5.76
2019-02-20T01:55:01.101Z,5.75
2019-02-20T01:57:28.559Z,5.80
2019-02-20T01:59:56.145Z,5.81
2019-02-20T02:02:23.599Z,5.81
2019-02-20T02:04:51.407Z,5.73
2019-02-20T02:07:18.812Z,5.60
2019-02-20T02:09:46.283Z,5.43
2019-02-20T02:12:13.712Z,5.19
2019-02-20T02:14:41.139Z,5.14
2019-02-20T02:17:08.568Z,5.15
2019-02-20T02:19:35.987Z,5.15
2019-02-20T02:22:03.414Z,5.23
2019-02-20T02:24:30.839Z,5.32
2019-02-20T02:26:58.726Z,5.50
2019-02-20T02:29:26.110Z,5.56
2019-02-20T02:31:53.541Z,5.58
2019-02-20T02:34:21.947Z,5.47
2019-02-20T02:36:49.508Z,5.32
2019-02-20T02:39:17.013Z,5.41
2019-02-20T02:41:44.910Z,5.46
2019-02-20T02:44:11.941Z,5.51
2019-02-20T02:46:39.395Z,5.50
2019-02-20T02:49:07.040Z,5.52
2019-02-20T02:51:34.421Z,5.45
2019-02-20T02:54:01.983Z,5.46
2019-02-20T02:56:29.385Z,5.50
2019-02-20T02:58:56.800Z,5.46
2019-02-20T03:01:24.245Z,5.43
2019-02-20T03:03:51.648Z,5.53
2019-02-20T03:06:19.059Z,5.47
2019-02-20T03:08:46.471Z,5.26
2019-02-20T03:11:13.865Z,5.33
2019-02-20T03:13:41.433Z,5.45
2019-02-20T03:16:08.819Z,5.42
2019-02-20T03:18:36.346Z,5.37
2019-02-20T03:21:03.781Z,5.33
2019-02-20T03:23:39.799Z,5.32
2019-02-20T03:25:58.624Z,5.30
2019-02-20T03:28:26.048Z,5.32
2019-02-20T03:30:53.467Z,5.27
2019-02-20T03:33:21.047Z,5.25
2019-02-20T03:35:48.454Z,5.22
2019-02-20T03:38:15.873Z,5.15
2019-02-20T03:40:43.271Z,5.15
2019-02-20T03:43:10.715Z,5.15
2019-02-20T03:45:38.229Z,5.12
2019-02-20T03:48:05.632Z,5.06
2019-02-20T03:50:33.027Z,5.10
2019-02-20T03:53:00.718Z,5.06
2019-02-20T03:55:28.122Z,4.98
2019-02-20T03:57:55.524Z,5.01
2019-02-20T04:00:22.960Z,5.04
2019-02-20T04:02:50.403Z,5.00
2019-02-20T04:05:17.846Z,4.93
2019-02-20T04:07:45.249Z,4.92
2019-02-20T04:10:13.020Z,4.97
2019-02-20T04:12:40.616Z,4.96
2019-02-20T04:15:08.054Z,4.95
2019-02-20T04:17:35.537Z,4.98
2019-02-20T04:20:02.928Z,4.92
2019-02-20T04:22:30.343Z,4.88
2019-02-20T04:24:57.757Z,4.88
2019-02-20T04:27:25.162Z,4.85
2019-02-20T04:29:52.645Z,4.86
2019-02-20T04:32:20.069Z,4.88
2019-02-20T04:34:47.490Z,4.92
2019-02-20T04:37:14.990Z,4.91
2019-02-20T04:39:43.244Z,4.82
2019-02-20T04:42:11.100Z,4.72
2019-02-20T04:44:38.513Z,4.59
2019-02-20T04:47:06.050Z,4.51
2019-02-20T04:49:33.436Z,4.47
2019-02-20T04:52:01.099Z,4.37
2019-02-20T04:54:28.499Z,4.40
2019-02-20T04:56:56.079Z,4.41
2019-02-20T04:59:23.468Z,4.38
2019-02-20T05:01:50.884Z,4.46
2019-02-20T05:04:18.315Z,4.44
2019-02-20T05:06:45.717Z,4.41
2019-02-20T05:09:13.111Z,4.48
2019-02-20T05:11:40.525Z,4.55
2019-02-20T05:14:07.961Z,4.50
2019-02-20T05:16:35.385Z,4.42
2019-02-20T05:19:02.994Z,4.34
2019-02-20T05:21:30.396Z,4.34
2019-02-20T05:23:57.780Z,4.36
2019-02-20T05:26:25.219Z,4.36
2019-02-20T05:28:52.615Z,4.33
2019-02-20T05:31:20.087Z,4.37
2019-02-20T05:33:47.529Z,4.35
2019-02-20T05:36:14.954Z,4.39
2019-02-20T05:38:42.671Z,4.44
2019-02-20T05:41:10.113Z,4.45
2019-02-20T05:43:37.548Z,4.52
2019-02-20T05:46:04.988Z,4.53
2019-02-20T05:48:32.429Z,4.56
2019-02-20T05:50:59.823Z,4.54
2019-02-20T05:53:27.299Z,4.46
2019-02-20T05:55:54.717Z,4.37
2019-02-20T05:58:22.142Z,4.41
2019-02-20T06:00:49.973Z,4.41
2019-02-20T06:03:17.355Z,4.46
2019-02-20T06:05:44.801Z,4.42
2019-02-20T06:08:12.206Z,4.43
2019-02-20T06:10:39.601Z,4.43
2019-02-20T06:13:07.253Z,4.42
2019-02-20T06:15:34.648Z,4.44
2019-02-20T06:18:02.058Z,4.42
2019-02-20T06:20:29.456Z,4.41
2019-02-20T06:22:56.866Z,4.36
2019-02-20T06:25:24.273Z,4.30
2019-02-20T06:27:51.694Z,4.25
2019-02-20T06:30:19.106Z,4.31
2019-02-20T06:32:46.511Z,4.37
2019-02-20T06:35:13.964Z,4.41
2019-02-20T06:37:41.367Z,4.41
2019-02-20T06:40:08.785Z,4.48
2019-02-20T06:42:36.945Z,4.52
2019-02-20T06:45:05.032Z,4.49
2019-02-20T06:47:32.475Z,4.54
2019-02-20T06:50:01.194Z,4.69
2019-02-20T06:52:27.397Z,4.77
2019-02-20T06:54:54.806Z,4.87
2019-02-20T06:57:22.612Z,5.01
2019-02-20T06:59:50.174Z,5.23
2019-02-20T07:02:17.582Z,5.47
2019-02-20T07:07:46.573Z,6.29
2019-02-20T07:10:19.823Z,6.39
2019-02-20T07:12:48.140Z,6.49
2019-02-20T07:15:35.162Z,6.29
2019-02-20T07:18:05.200Z,6.30
2019-02-20T07:20:42.028Z,6.65
2019-02-20T07:26:24.866Z,7.84
2019-02-20T07:29:05.907Z,7.85
2019-02-20T07:31:33.314Z,7.93
2019-02-20T07:34:00.863Z,8.21
2019-02-20T07:36:28.315Z,8.49
2019-02-20T07:38:55.949Z,8.59
2019-02-20T07:41:23.510Z,8.72
2019-02-20T07:43:50.923Z,8.92
2019-02-20T07:46:18.366Z,9.22
2019-02-20T07:48:45.800Z,9.40
2019-02-20T07:51:14.867Z,9.51
2019-02-20T07:53:40.770Z,9.55
2019-02-20T07:56:08.280Z,9.45
2019-02-20T07:58:35.667Z,9.68
2019-02-20T08:01:03.123Z,10.06
2019-02-20T08:03:30.550Z,10.43
2019-02-20T08:05:58.001Z,10.54
2019-02-20T08:08:25.465Z,10.67
2019-02-20T08:10:52.881Z,10.72
2019-02-20T08:13:20.361Z,10.60
2019-02-20T08:15:47.763Z,10.70
2019-02-20T08:18:15.240Z,11.18
2019-02-20T08:20:42.862Z,11.68
2019-02-20T08:23:10.250Z,11.85
2019-02-20T08:25:37.773Z,11.72
2019-02-20T08:28:05.220Z,11.48
2019-02-20T08:30:32.798Z,11.76
2019-02-20T08:33:00.202Z,11.90
2019-02-20T08:35:27.635Z,11.84
2019-02-20T08:37:55.083Z,12.00
2019-02-20T08:40:22.492Z,12.38
2019-02-20T08:42:49.915Z,12.73
2019-02-20T08:45:17.318Z,12.94
2019-02-20T08:47:44.782Z,13.16
2019-02-20T08:50:13.022Z,13.37
2019-02-20T08:52:40.443Z,13.45
2019-02-20T08:55:07.865Z,13.29
2019-02-20T08:57:34.805Z,13.18
2019-02-20T09:00:02.262Z,13.34
2019-02-20T09:02:29.987Z,13.80
2019-02-20T09:04:57.003Z,14.23
2019-02-20T09:07:24.549Z,14.63
2019-02-20T09:09:51.964Z,14.54
2019-02-20T09:12:19.454Z,14.69
2019-02-20T09:14:46.992Z,14.68
2019-02-20T09:17:14.512Z,14.58
2019-02-20T09:19:42.646Z,14.38
2019-02-20T09:22:10.050Z,14.07
2019-02-20T09:24:37.465Z,14.00
2019-02-20T09:27:04.898Z,14.06
2019-02-20T09:29:32.351Z,14.36
2019-02-20T09:31:59.779Z,14.75
2019-02-20T09:34:27.216Z,14.98
2019-02-20T09:36:54.653Z,15.05
2019-02-20T09:39:33.085Z,15.16
2019-02-20T09:42:00.546Z,15.44
2019-02-20T09:44:28.418Z,16.09
2019-02-20T09:46:55.829Z,16.49
2019-02-20T09:49:23.287Z,16.70
2019-02-20T09:51:50.755Z,16.92
2019-02-20T09:54:18.219Z,17.15
2019-02-20T09:56:45.700Z,17.39
2019-02-20T09:59:13.102Z,17.51
2019-02-20T10:01:40.601Z,17.71
2019-02-20T10:04:08.016Z,17.85
2019-02-20T10:06:35.439Z,17.80
2019-02-20T10:09:02.882Z,17.90
2019-02-20T10:11:30.302Z,17.72
2019-02-20T10:13:57.717Z,17.44
2019-02-20T10:16:25.122Z,17.49
2019-02-20T10:18:52.529Z,17.27
2019-02-20T10:21:19.951Z,17.69
2019-02-20T10:23:47.501Z,18.00
2019-02-20T10:26:15.619Z,18.25
2019-02-20T10:28:43.039Z,18.48
2019-02-20T10:31:10.461Z,18.65
2019-02-20T10:33:37.919Z,18.72
2019-02-20T10:36:05.325Z,18.28
2019-02-20T10:38:32.955Z,17.93
2019-02-20T10:41:00.430Z,17.62
2019-02-20T10:43:27.885Z,17.75
2019-02-20T10:45:55.293Z,17.88
2019-02-20T10:48:22.704Z,18.04
2019-02-20T10:50:50.114Z,18.06
2019-02-20T10:53:18.452Z,17.99
2019-02-20T10:55:45.415Z,18.03
2019-02-20T10:58:12.359Z,18.44
2019-02-20T11:00:39.456Z,18.70
2019-02-20T11:03:06.446Z,18.97
2019-02-20T11:05:33.505Z,19.27
2019-02-20T11:08:00.356Z,19.16
2019-02-20T11:10:27.323Z,18.98
2019-02-20T11:12:54.400Z,19.25
2019-02-20T11:15:21.436Z,19.67
2019-02-20T11:17:48.880Z,20.01
2019-02-20T11:20:16.454Z,20.12
2019-02-20T11:22:43.457Z,20.23
2019-02-20T11:25:10.854Z,20.71
2019-02-20T11:27:39.471Z,20.93
2019-02-20T11:30:08.175Z,21.21
2019-02-20T11:32:35.611Z,21.59
2019-02-20T11:35:02.835Z,22.06
2019-02-20T11:37:29.792Z,22.40
2019-02-20T11:39:56.736Z,22.80
2019-02-20T11:42:23.674Z,22.97
2019-02-20T11:44:51.090Z,22.93
2019-02-20T11:47:18.915Z,22.71
2019-02-20T11:49:46.351Z,22.56
2019-02-20T11:52:13.774Z,22.52
2019-02-20T11:54:41.213Z,22.68
2019-02-20T11:57:08.671Z,23.13
2019-02-20T11:59:35.965Z,23.67
2019-02-20T12:02:03.440Z,24.14
2019-02-20T12:04:31.963Z,24.26
2019-02-20T12:06:59.399Z,24.30
2019-02-20T12:09:26.855Z,24.55
2019-02-20T12:11:54.275Z,24.56
2019-02-20T12:14:24.287Z,24.17
2019-02-20T12:16:50.323Z,24.16
2019-02-20T12:19:17.738Z,24.67
2019-02-20T12:21:45.140Z,24.78
2019-02-20T12:24:12.648Z,24.84
2019-02-20T12:26:40.055Z,25.16
2019-02-20T12:29:07.500Z,25.58
2019-02-20T12:31:34.911Z,25.58
2019-02-20T12:34:02.673Z,25.45
2019-02-20T12:36:30.079Z,25.11
2019-02-20T12:38:57.545Z,24.65
2019-02-20T12:41:25.020Z,24.91
2019-02-20T12:43:52.459Z,24.97
2019-02-20T12:46:19.965Z,25.50
2019-02-20T12:48:47.384Z,25.97
2019-02-20T12:51:14.831Z,26.15
2019-02-20T12:53:43.614Z,25.76
2019-02-20T12:56:10.303Z,25.70
2019-02-20T12:58:38.387Z,25.58
2019-02-20T13:01:04.744Z,25.02
2019-02-20T13:05:59.572Z,24.91
2019-02-20T13:08:27.011Z,25.42
2019-02-20T13:10:54.501Z,25.93
2019-02-20T13:13:21.927Z,26.19
2019-02-20T13:15:49.384Z,26.07
2019-02-20T13:18:16.887Z,25.84
2019-02-20T13:20:44.237Z,25.72
2019-02-20T13:23:11.662Z,25.52
2019-02-20T13:25:39.198Z,26.04
2019-02-20T13:30:40.501Z,26.44
2019-02-20T13:33:08.069Z,26.68
2019-02-20T13:35:35.648Z,27.01
2019-02-20T13:38:03.206Z,27.13
2019-02-20T13:40:30.612Z,27.19
2019-02-20T13:42:58.048Z,27.50
2019-02-20T13:45:25.648Z,27.75
2019-02-20T13:47:53.082Z,28.23
2019-02-20T13:50:20.572Z,28.37
2019-02-20T13:52:52.221Z,28.82
2019-02-20T13:55:15.457Z,29.12
2019-02-20T13:57:42.388Z,29.84
2019-02-20T14:00:09.807Z,30.77
2019-02-20T14:02:37.210Z,31.83
2019-02-20T14:05:05.501Z,32.71
2019-02-20T14:07:32.998Z,33.30
2019-02-20T14:10:00.413Z,33.57
2019-02-20T14:12:27.434Z,33.84
2019-02-20T14:14:54.387Z,34.09
2019-02-20T14:17:26.649Z,33.72
2019-02-20T14:19:48.419Z,33.49
2019-02-20T14:22:15.468Z,34.17
2019-02-20T14:24:42.445Z,34.64
2019-02-20T14:27:11.077Z,34.32
2019-02-20T14:29:37.049Z,33.82
2019-02-20T14:32:04.066Z,33.71
2019-02-20T14:34:31.006Z,33.94
2019-02-20T14:36:57.950Z,33.86
2019-02-20T14:39:24.952Z,33.67
2019-02-20T14:41:51.949Z,33.55
2019-02-20T14:44:18.893Z,33.54
2019-02-20T14:46:45.865Z,33.45
2019-02-20T14:49:13.499Z,33.05
2019-02-20T14:51:40.957Z,32.79
2019-02-20T14:54:08.033Z,32.23
2019-02-20T14:56:34.989Z,32.21
2019-02-20T14:59:01.936Z,32.50
2019-02-20T15:01:28.899Z,32.19
2019-02-20T15:03:55.900Z,32.24
2019-02-20T15:06:23.182Z,32.30
2019-02-20T15:08:50.634Z,32.25
2019-02-20T15:11:18.063Z,32.37
2019-02-20T15:13:45.480Z,32.71
2019-02-20T15:16:12.911Z,32.82
2019-02-20T15:18:40.034Z,33.26
2019-02-20T15:21:07.477Z,32.95
2019-02-20T15:23:34.641Z,32.23
2019-02-20T15:26:01.587Z,32.67
2019-02-20T15:28:28.538Z,33.10
2019-02-20T15:30:55.496Z,32.73
2019-02-20T15:33:24.012Z,32.33
2019-02-20T15:35:49.837Z,31.58
2019-02-20T15:38:17.046Z,31.08
2019-02-20T15:40:44.046Z,30.64
2019-02-20T15:43:11.083Z,30.28
2019-02-20T15:45:38.083Z,30.04
2019-02-20T15:48:05.546Z,30.00
2019-02-20T15:50:32.953Z,30.09
2019-02-20T15:53:00.382Z,30.18
2019-02-20T15:55:27.992Z,30.60
2019-02-20T15:57:55.408Z,30.73
2019-02-20T16:00:22.933Z,30.27
2019-02-20T16:02:50.363Z,30.05
2019-02-20T16:05:17.820Z,29.77
2019-02-20T16:07:45.303Z,29.13
2019-02-20T16:10:12.501Z,28.60
2019-02-20T16:12:39.988Z,28.14
2019-02-20T16:15:07.085Z,27.55
2019-02-20T16:17:34.766Z,26.60
2019-02-20T16:20:02.089Z,25.63
2019-02-20T16:22:29.603Z,24.68
2019-02-20T16:24:57.090Z,24.11
2019-02-20T16:27:24.063Z,23.54
2019-02-20T16:29:51.525Z,23.23
2019-02-20T16:32:19.095Z,22.68
2019-02-20T16:34:46.912Z,21.63
2019-02-20T16:37:14.316Z,20.39
2019-02-20T16:39:41.798Z,19.21
2019-02-20T16:42:09.317Z,18.03
2019-02-20T16:44:36.751Z,17.37
2019-02-20T16:47:04.159Z,16.66
2019-02-20T16:49:31.642Z,15.97
2019-02-20T16:51:59.123Z,15.60
2019-02-20T16:54:27.526Z,15.32
2019-02-20T16:56:54.996Z,15.08
2019-02-20T16:59:22.508Z,14.85
2019-02-20T17:01:50.007Z,14.53
2019-02-20T17:04:17.435Z,14.30
2019-02-20T17:06:44.886Z,14.05
2019-02-20T17:09:12.539Z,13.81
2019-02-20T17:11:40.091Z,13.67
2019-02-20T17:14:07.561Z,13.37
2019-02-20T17:16:35.024Z,13.05
2019-02-20T17:19:02.463Z,12.86
2019-02-20T17:21:29.903Z,12.68
2019-02-20T17:23:57.325Z,12.58
2019-02-20T17:26:25.191Z,12.54
2019-02-20T17:28:52.612Z,12.48
2019-02-20T17:31:20.495Z,12.41
2019-02-20T17:33:48.044Z,12.44
2019-02-20T17:36:15.485Z,12.40
2019-02-20T17:38:43.079Z,12.38
2019-02-20T17:41:10.496Z,12.40
2019-02-20T17:43:38.051Z,12.40
2019-02-20T17:46:05.532Z,12.32
2019-02-20T17:48:32.966Z,12.27
2019-02-20T17:51:00.435Z,12.22
2019-02-20T17:53:27.903Z,12.19
2019-02-20T17:55:55.312Z,12.12
2019-02-20T17:58:22.755Z,12.03
2019-02-20T18:00:50.304Z,11.99
2019-02-20T18:03:17.868Z,12.00
2019-02-20T18:05:45.393Z,11.95
2019-02-20T18:08:12.842Z,11.89
2019-02-20T18:10:40.371Z,11.88
2019-02-20T18:13:07.852Z,11.89
2019-02-20T18:15:35.363Z,11.87
2019-02-20T18:18:02.821Z,11.86
2019-02-20T18:20:30.305Z,11.83
2019-02-20T18:22:57.745Z,11.78
2019-02-20T18:25:25.236Z,11.74
2019-02-20T18:27:52.825Z,11.73
2019-02-20T18:30:20.397Z,11.69
2019-02-20T18:32:47.835Z,11.67
2019-02-20T18:35:16.093Z,11.65
2019-02-20T18:37:43.587Z,11.61
2019-02-20T18:40:11.119Z,11.62
2019-02-20T18:42:38.655Z,11.59
2019-02-20T18:45:06.145Z,11.61
2019-02-20T18:47:33.704Z,11.56
2019-02-20T18:50:01.187Z,11.51
2019-02-20T18:52:31.893Z,11.46
2019-02-20T18:55:05.629Z,11.38
2019-02-20T18:57:26.766Z,11.34
2019-02-20T18:59:54.190Z,11.25
2019-02-20T19:02:21.696Z,11.21
2019-02-20T19:04:49.188Z,11.10
2019-02-20T19:07:16.596Z,11.10
2019-02-20T19:09:44.168Z,11.11
2019-02-20T19:12:18.454Z,11.11
2019-02-20T19:14:46.098Z,11.09
2019-02-20T19:17:24.491Z,11.06
2019-02-20T19:23:20.277Z,11.29
2019-02-20T19:26:09.239Z,11.10
2019-02-20T19:28:44.312Z,10.98
2019-02-20T19:31:30.195Z,10.96
2019-02-20T19:34:04.253Z,10.93
2019-02-20T19:36:51.647Z,10.87
2019-02-20T19:39:20.931Z,10.77
2019-02-20T19:42:00.312Z,10.74
2019-02-20T19:44:31.793Z,10.73
2019-02-20T19:47:07.503Z,10.71
2019-02-20T19:49:50.760Z,10.72
2019-02-20T19:52:27.018Z,10.71
2019-02-20T19:55:01.827Z,10.66
2019-02-20T19:57:59.003Z,10.62
2019-02-20T20:00:30.863Z,10.48
2019-02-20T20:03:06.559Z,10.29
2019-02-20T20:05:54.498Z,10.29
2019-02-20T20:08:32.935Z,10.23
2019-02-20T20:14:04.584Z,10.41
2019-02-20T20:16:33.801Z,10.31
2019-02-20T20:19:13.734Z,10.19
2019-02-20T20:21:47.367Z,10.04
2019-02-20T20:27:28.586Z,10.20
2019-02-20T20:30:09.762Z,10.03
2019-02-20T20:32:56.025Z,9.93
2019-02-20T20:38:31.991Z,10.07
2019-02-20T20:41:05.075Z,9.93
2019-02-20T20:46:46.268Z,10.16
2019-02-20T20:49:19.043Z,10.08
2019-02-20T20:55:00.788Z,10.14
2019-02-20T20:57:33.121Z,10.04
2019-02-20T21:00:12.185Z,9.85
2019-02-20T21:02:40.199Z,9.74
2019-02-20T21:05:19.401Z,9.65
2019-02-20T21:07:51.397Z,9.48
2019-02-20T21:10:34.322Z,9.37
2019-02-20T21:13:24.251Z,9.22
2019-02-20T21:18:58.826Z,9.41
2019-02-20T21:24:44.707Z,9.56
2019-02-20T21:30:20.634Z,9.51
2019-02-20T21:32:52.650Z,9.41
2019-02-20T21:35:20.295Z,9.28
2019-02-20T21:37:56.191Z,9.18
2019-02-20T21:40:27.234Z,9.06
2019-02-20T21:45:56.868Z,9.21
2019-02-20T21:48:29.977Z,9.04
2019-02-20T21:51:03.026Z,8.88
2019-02-20T21:53:34.777Z,8.76
2019-02-20T21:56:02.631Z,8.71
2019-02-20T21:58:33.231Z,8.68
2019-02-20T22:01:23.859Z,8.65
2019-02-20T22:07:05.951Z,8.99
2019-02-20T22:09:34.143Z,8.77
2019-02-20T22:12:16.922Z,8.63
2019-02-20T22:14:47.330Z,8.50
2019-02-20T22:17:19.522Z,8.44
2019-02-20T22:23:05.296Z,8.55
2019-02-20T22:25:44.204Z,8.47
2019-02-20T22:31:35.896Z,8.50
2019-02-20T22:34:16.603Z,8.27
2019-02-20T22:36:55.846Z,8.01
2019-02-20T22:39:46.705Z,7.86
2019-02-20T22:42:38.578Z,7.82
2019-02-20T22:45:19.594Z,7.79
2019-02-20T22:50:57.827Z,8.06
2019-02-20T22:56:43.317Z,8.19
2019-02-20T22:59:17.461Z,8.04
2019-02-20T23:04:40.561Z,8.21
2019-02-20T23:07:24.752Z,8.06
2019-02-20T23:09:58.709Z,7.92
2019-02-20T23:12:27.839Z,7.89
2019-02-20T23:14:57.857Z,7.84
2019-02-20T23:17:27.176Z,7.79
2019-02-20T23:19:52.898Z,7.68
2019-02-20T23:22:20.288Z,7.57
2019-02-20T23:24:47.694Z,7.62
2019-02-20T23:27:15.129Z,7.65
2019-02-20T23:29:42.724Z,7.53
2019-02-20T23:32:10.108Z,7.46
2019-02-20T23:34:37.527Z,7.39
2019-02-20T23:37:04.935Z,7.34
2019-02-20T23:39:32.337Z,7.29
2019-02-20T23:41:59.748Z,7.29
2019-02-20T23:44:27.183Z,7.30
2019-02-20T23:46:54.717Z,7.35
2019-02-20T23:49:22.190Z,7.28
2019-02-20T23:51:49.651Z,7.25
2019-02-20T23:54:17.096Z,7.26
2019-02-20T23:56:44.515Z,7.27
2019-02-20T23:59:13.794Z,7.26
